PWSweather.com
Personal Weather Stations
Station Observations

Acton, CA 93510

Lat: 34.47703, Lon: -118.17483

Elevation: 2900

Station Type: Davis Vantage Pro 2

http://www.actonastro.com/weather/current.php

High Low Average
Temperature 66.0°F18.9°C 49.2°F9.6°C 56.3°F13.5°C
Dew Point 47.2°F8.4°C 43.0°F6.1°C 44.8°F7.1°C
Winds 12.7 mph 20.4 kmh 0.6 mph 1.0 kmh 6.0 mph SW9.7 kmh SW
Wind Gusts 20.0 mph32.2 kmh 1.0 mph1.6 kmh 10.0 mph16.1 kmh
Humidity 85% 47% 67%
Pressure 29.88 in1011.9 mb 29.79 in1008.8 mb -
Precipitation 0.00 in0.0 mm - -
Hour Temp Dew Point Humidity Winds Wind Gusts Pressure Precip Precip Rate Daily Precip Total
12:00 AM 51.0°F10.6°C 45.4°F7.4°C 81% 2.9 mph SW4.7 kmh SW 7.0 mph11.3 kmh 29.80 in1009.1 mb 0.00 in0.0 mm 0.00 in/hr0.0 mm/hr 0.00 in0.0 mm
12:15 AM 50.8°F10.4°C 45.5°F7.5°C 82% 0.6 mph SW1.0 kmh SW 1.0 mph1.6 kmh 29.80 in1009.1 mb 0.00 in0.0 mm 0.00 in/hr0.0 mm/hr 0.00 in0.0 mm
12:30 AM 50.7°F10.4°C 45.4°F7.4°C 82% 3.0 mph SW4.8 kmh SW 4.0 mph6.4 kmh 29.80 in1009.1 mb 0.00 in0.0 mm 0.00 in/hr0.0 mm/hr 0.00 in0.0 mm
12:45 AM 50.7°F10.4°C 45.4°F7.4°C 82% 3.0 mph SW4.8 kmh SW 5.0 mph8.0 kmh 29.79 in1008.8 mb 0.00 in0.0 mm 0.00 in/hr0.0 mm/hr 0.00 in0.0 mm
01:00 AM 50.5°F10.3°C 45.2°F7.3°C 82% 2.7 mph SW4.3 kmh SW 4.0 mph6.4 kmh 29.79 in1008.8 mb 0.00 in0.0 mm 0.00 in/hr0.0 mm/hr 0.00 in0.0 mm
01:15 AM 50.6°F10.3°C 44.9°F7.2°C 81% 1.5 mph SW2.4 kmh SW 4.0 mph6.4 kmh 29.79 in1008.8 mb 0.00 in0.0 mm 0.00 in/hr0.0 mm/hr 0.00 in0.0 mm
01:30 AM 50.5°F10.3°C 45.2°F7.3°C 82% 1.7 mph SW2.7 kmh SW 3.0 mph4.8 kmh 29.79 in1008.8 mb 0.00 in0.0 mm 0.00 in/hr0.0 mm/hr 0.00 in0.0 mm
01:45 AM 50.2°F10.1°C 44.9°F7.2°C 82% 2.7 mph SW4.3 kmh SW 6.0 mph9.7 kmh 29.79 in1008.8 mb 0.00 in0.0 mm 0.00 in/hr0.0 mm/hr 0.00 in0.0 mm
02:00 AM 49.9°F9.9°C 44.6°F7.0°C 82% 0.9 mph SW1.4 kmh SW 3.0 mph4.8 kmh 29.79 in1008.8 mb 0.00 in0.0 mm 0.00 in/hr0.0 mm/hr 0.00 in0.0 mm
02:15 AM 49.6°F9.8°C 44.6°F7.0°C 83% 3.0 mph SW4.8 kmh SW 5.0 mph8.0 kmh 29.79 in1008.8 mb 0.00 in0.0 mm 0.00 in/hr0.0 mm/hr 0.00 in0.0 mm
02:30 AM 49.6°F9.8°C 44.6°F7.0°C 83% 1.9 mph SW3.1 kmh SW 5.0 mph8.0 kmh 29.79 in1008.8 mb 0.00 in0.0 mm 0.00 in/hr0.0 mm/hr 0.00 in0.0 mm
02:45 AM 49.5°F9.7°C 44.6°F7.0°C 83% 4.6 mph SSW7.4 kmh SSW 6.0 mph9.7 kmh 29.79 in1008.8 mb 0.00 in0.0 mm 0.00 in/hr0.0 mm/hr 0.00 in0.0 mm
03:00 AM 49.2°F9.6°C 44.6°F7.0°C 84% 2.2 mph SSW3.5 kmh SSW 4.0 mph6.4 kmh 29.79 in1008.8 mb 0.00 in0.0 mm 0.00 in/hr0.0 mm/hr 0.00 in0.0 mm
03:15 AM 49.4°F9.7°C 45.1°F7.3°C 85% 2.2 mph S3.5 kmh S 7.0 mph11.3 kmh 29.81 in1009.5 mb 0.00 in0.0 mm 0.00 in/hr0.0 mm/hr 0.00 in0.0 mm
03:30 AM 49.6°F9.8°C 45.3°F7.4°C 85% 5.0 mph SSW8.0 kmh SSW 9.0 mph14.5 kmh 29.80 in1009.1 mb 0.00 in0.0 mm 0.00 in/hr0.0 mm/hr 0.00 in0.0 mm
03:45 AM 49.8°F9.9°C 45.2°F7.3°C 84% 2.0 mph S3.2 kmh S 4.0 mph6.4 kmh 29.80 in1009.1 mb 0.00 in0.0 mm 0.00 in/hr0.0 mm/hr 0.00 in0.0 mm
04:00 AM 49.6°F9.8°C 45.0°F7.2°C 84% 3.0 mph S4.8 kmh S 4.0 mph6.4 kmh 29.80 in1009.1 mb 0.00 in0.0 mm 0.00 in/hr0.0 mm/hr 0.00 in0.0 mm
04:15 AM 49.6°F9.8°C 45.0°F7.2°C 84% 0.9 mph S1.4 kmh S 2.0 mph3.2 kmh 29.81 in1009.5 mb 0.00 in0.0 mm 0.00 in/hr0.0 mm/hr 0.00 in0.0 mm
04:30 AM 49.6°F9.8°C 45.0°F7.2°C 84% 3.2 mph S5.1 kmh S 6.0 mph9.7 kmh 29.81 in1009.5 mb 0.00 in0.0 mm 0.00 in/hr0.0 mm/hr 0.00 in0.0 mm
04:45 AM 49.5°F9.7°C 45.2°F7.3°C 85% 1.9 mph S3.1 kmh S 3.0 mph4.8 kmh 29.81 in1009.5 mb 0.00 in0.0 mm 0.00 in/hr0.0 mm/hr 0.00 in0.0 mm
05:00 AM 49.5°F9.7°C 45.2°F7.3°C 85% 2.0 mph S3.2 kmh S 4.0 mph6.4 kmh 29.82 in1009.8 mb 0.00 in0.0 mm 0.00 in/hr0.0 mm/hr 0.00 in0.0 mm
05:15 AM 49.5°F9.7°C 45.2°F7.3°C 85% 1.9 mph S3.1 kmh S 3.0 mph4.8 kmh 29.83 in1010.2 mb 0.00 in0.0 mm 0.00 in/hr0.0 mm/hr 0.00 in0.0 mm
05:30 AM 49.4°F9.7°C 44.5°F6.9°C 83% 3.1 mph S5.0 kmh S 4.0 mph6.4 kmh 29.84 in1010.5 mb 0.00 in0.0 mm 0.00 in/hr0.0 mm/hr 0.00 in0.0 mm
05:45 AM 49.5°F9.7°C 44.2°F6.8°C 82% 3.8 mph SSW6.1 kmh SSW 6.0 mph9.7 kmh 29.85 in1010.8 mb 0.00 in0.0 mm 0.00 in/hr0.0 mm/hr 0.00 in0.0 mm
06:00 AM 49.8°F9.9°C 44.5°F6.9°C 82% 1.0 mph SSW1.6 kmh SSW 1.0 mph1.6 kmh 29.85 in1010.8 mb 0.00 in0.0 mm 0.00 in/hr0.0 mm/hr 0.00 in0.0 mm
06:15 AM 50.1°F10.1°C 44.5°F6.9°C 81% 3.4 mph SSW5.5 kmh SSW 7.0 mph11.3 kmh 29.86 in1011.2 mb 0.00 in0.0 mm 0.00 in/hr0.0 mm/hr 0.00 in0.0 mm
06:30 AM 50.2°F10.1°C 44.3°F6.8°C 80% 3.6 mph SSW5.8 kmh SSW 4.0 mph6.4 kmh 29.86 in1011.2 mb 0.00 in0.0 mm 0.00 in/hr0.0 mm/hr 0.00 in0.0 mm
06:45 AM 50.5°F10.3°C 43.6°F6.4°C 77% 8.5 mph SW13.7 kmh SW 12.0 mph19.3 kmh 29.87 in1011.5 mb 0.00 in0.0 mm 0.00 in/hr0.0 mm/hr 0.00 in0.0 mm
07:00 AM 51.1°F10.6°C 43.1°F6.2°C 74% 6.1 mph SW9.8 kmh SW 16.0 mph25.7 kmh 29.87 in1011.5 mb 0.00 in0.0 mm 0.00 in/hr0.0 mm/hr 0.00 in0.0 mm
07:15 AM 52.2°F11.2°C 43.5°F6.4°C 72% 5.8 mph SSW9.3 kmh SSW 11.0 mph17.7 kmh 29.87 in1011.5 mb 0.00 in0.0 mm 0.00 in/hr0.0 mm/hr 0.00 in0.0 mm
07:30 AM 53.2°F11.8°C 43.3°F6.3°C 69% 6.5 mph SW10.5 kmh SW 13.0 mph20.9 kmh 29.88 in1011.9 mb 0.00 in0.0 mm 0.00 in/hr0.0 mm/hr 0.00 in0.0 mm
07:45 AM 54.1°F12.3°C 43.0°F6.1°C 66% 6.5 mph SW10.5 kmh SW 12.0 mph19.3 kmh 29.87 in1011.5 mb 0.00 in0.0 mm 0.00 in/hr0.0 mm/hr 0.00 in0.0 mm
08:00 AM 54.9°F12.7°C 43.3°F6.3°C 65% 6.2 mph SSW10.0 kmh SSW 10.0 mph16.1 kmh 29.87 in1011.5 mb 0.00 in0.0 mm 0.00 in/hr0.0 mm/hr 0.00 in0.0 mm
08:15 AM 55.9°F13.3°C 43.5°F6.4°C 63% 9.4 mph SW15.1 kmh SW 11.0 mph17.7 kmh 29.87 in1011.5 mb 0.00 in0.0 mm 0.00 in/hr0.0 mm/hr 0.00 in0.0 mm
08:30 AM 56.3°F13.5°C 43.9°F6.6°C 63% 6.6 mph SW10.6 kmh SW 12.0 mph19.3 kmh 29.87 in1011.5 mb 0.00 in0.0 mm 0.00 in/hr0.0 mm/hr 0.00 in0.0 mm
08:45 AM 57.0°F13.9°C 43.7°F6.5°C 61% 8.5 mph SW13.7 kmh SW 16.0 mph25.7 kmh 29.86 in1011.2 mb 0.00 in0.0 mm 0.00 in/hr0.0 mm/hr 0.00 in0.0 mm
09:00 AM 57.9°F14.4°C 44.1°F6.7°C 60% 10.3 mph SW16.6 kmh SW 15.0 mph24.1 kmh 29.86 in1011.2 mb 0.00 in0.0 mm 0.00 in/hr0.0 mm/hr 0.00 in0.0 mm
09:15 AM 58.4°F14.7°C 43.7°F6.5°C 58% 8.4 mph SW13.5 kmh SW 11.0 mph17.7 kmh 29.86 in1011.2 mb 0.00 in0.0 mm 0.00 in/hr0.0 mm/hr 0.00 in0.0 mm
09:30 AM 58.9°F14.9°C 44.1°F6.7°C 58% 8.2 mph WSW13.2 kmh WSW 13.0 mph20.9 kmh 29.86 in1011.2 mb 0.00 in0.0 mm 0.00 in/hr0.0 mm/hr 0.00 in0.0 mm
09:45 AM 60.1°F15.6°C 44.3°F6.8°C 56% 6.9 mph SW11.1 kmh SW 11.0 mph17.7 kmh 29.86 in1011.2 mb 0.00 in0.0 mm 0.00 in/hr0.0 mm/hr 0.00 in0.0 mm
10:00 AM 60.5°F15.8°C 44.2°F6.8°C 55% 7.4 mph SW11.9 kmh SW 14.0 mph22.5 kmh 29.86 in1011.2 mb 0.00 in0.0 mm 0.00 in/hr0.0 mm/hr 0.00 in0.0 mm
10:15 AM 61.0°F16.1°C 44.2°F6.8°C 54% 7.6 mph WSW12.2 kmh WSW 13.0 mph20.9 kmh 29.86 in1011.2 mb 0.00 in0.0 mm 0.00 in/hr0.0 mm/hr 0.00 in0.0 mm
10:30 AM 62.0°F16.7°C 44.2°F6.8°C 52% 10.1 mph WSW16.3 kmh WSW 18.0 mph29.0 kmh 29.85 in1010.8 mb 0.00 in0.0 mm 0.00 in/hr0.0 mm/hr 0.00 in0.0 mm
10:45 AM 62.4°F16.9°C 44.0°F6.7°C 51% 10.0 mph WSW16.1 kmh WSW 15.0 mph24.1 kmh 29.85 in1010.8 mb 0.00 in0.0 mm 0.00 in/hr0.0 mm/hr 0.00 in0.0 mm
11:00 AM 63.0°F17.2°C 44.6°F7.0°C 51% 9.9 mph SW15.9 kmh SW 14.0 mph22.5 kmh 29.85 in1010.8 mb 0.00 in0.0 mm 0.00 in/hr0.0 mm/hr 0.00 in0.0 mm
11:15 AM 63.2°F17.3°C 43.7°F6.5°C 49% 8.8 mph WSW14.2 kmh WSW 14.0 mph22.5 kmh 29.85 in1010.8 mb 0.00 in0.0 mm 0.00 in/hr0.0 mm/hr 0.00 in0.0 mm
11:30 AM 63.8°F17.7°C 44.8°F7.1°C 50% 3.9 mph SW6.3 kmh SW 11.0 mph17.7 kmh 29.85 in1010.8 mb 0.00 in0.0 mm 0.00 in/hr0.0 mm/hr 0.00 in0.0 mm
11:45 AM 64.7°F18.2°C 44.5°F6.9°C 48% 9.6 mph WSW15.4 kmh WSW 17.0 mph27.4 kmh 29.84 in1010.5 mb 0.00 in0.0 mm 0.00 in/hr0.0 mm/hr 0.00 in0.0 mm
12:00 PM 64.7°F18.2°C 45.1°F7.3°C 49% 9.9 mph SW15.9 kmh SW 18.0 mph29.0 kmh 29.84 in1010.5 mb 0.00 in0.0 mm 0.00 in/hr0.0 mm/hr 0.00 in0.0 mm
12:15 PM 64.7°F18.2°C 44.5°F6.9°C 48% 9.4 mph SSW15.1 kmh SSW 12.0 mph19.3 kmh 29.84 in1010.5 mb 0.00 in0.0 mm 0.00 in/hr0.0 mm/hr 0.00 in0.0 mm
12:30 PM 64.7°F18.2°C 44.5°F6.9°C 48% 10.5 mph WSW16.9 kmh WSW 16.0 mph25.7 kmh 29.84 in1010.5 mb 0.00 in0.0 mm 0.00 in/hr0.0 mm/hr 0.00 in0.0 mm
12:45 PM 64.8°F18.2°C 45.2°F7.3°C 49% 9.1 mph W14.6 kmh W 16.0 mph25.7 kmh 29.84 in1010.5 mb 0.00 in0.0 mm 0.00 in/hr0.0 mm/hr 0.00 in0.0 mm
01:00 PM 65.2°F18.4°C 45.5°F7.5°C 49% 9.2 mph WSW14.8 kmh WSW 16.0 mph25.7 kmh 29.84 in1010.5 mb 0.00 in0.0 mm 0.00 in/hr0.0 mm/hr 0.00 in0.0 mm
01:15 PM 65.7°F18.7°C 44.9°F7.2°C 47% 11.2 mph WSW18.0 kmh WSW 14.0 mph22.5 kmh 29.84 in1010.5 mb 0.00 in0.0 mm 0.00 in/hr0.0 mm/hr 0.00 in0.0 mm
01:30 PM 66.0°F18.9°C 45.2°F7.3°C 47% 10.2 mph WSW16.4 kmh WSW 17.0 mph27.4 kmh 29.84 in1010.5 mb 0.00 in0.0 mm 0.00 in/hr0.0 mm/hr 0.00 in0.0 mm
01:45 PM 65.6°F18.7°C 45.4°F7.4°C 48% 11.3 mph WSW18.2 kmh WSW 16.0 mph25.7 kmh 29.84 in1010.5 mb 0.00 in0.0 mm 0.00 in/hr0.0 mm/hr 0.00 in0.0 mm
02:00 PM 65.8°F18.8°C 46.1°F7.8°C 49% 11.2 mph WSW18.0 kmh WSW 16.0 mph25.7 kmh 29.84 in1010.5 mb 0.00 in0.0 mm 0.00 in/hr0.0 mm/hr 0.00 in0.0 mm
02:15 PM 65.6°F18.7°C 46.4°F8.0°C 50% 12.7 mph WSW20.4 kmh WSW 16.0 mph25.7 kmh 29.84 in1010.5 mb 0.00 in0.0 mm 0.00 in/hr0.0 mm/hr 0.00 in0.0 mm
02:30 PM 65.4°F18.6°C 46.3°F7.9°C 50% 11.0 mph SW17.7 kmh SW 18.0 mph29.0 kmh 29.84 in1010.5 mb 0.00 in0.0 mm 0.00 in/hr0.0 mm/hr 0.00 in0.0 mm
02:45 PM 64.8°F18.2°C 46.2°F7.9°C 51% 9.5 mph WSW15.3 kmh WSW 20.0 mph32.2 kmh 29.84 in1010.5 mb 0.00 in0.0 mm 0.00 in/hr0.0 mm/hr 0.00 in0.0 mm
03:00 PM 64.5°F18.1°C 47.0°F8.3°C 53% 11.2 mph SSW18.0 kmh SSW 15.0 mph24.1 kmh 29.84 in1010.5 mb 0.00 in0.0 mm 0.00 in/hr0.0 mm/hr 0.00 in0.0 mm
03:15 PM 64.2°F17.9°C 47.2°F8.4°C 54% 10.2 mph SW16.4 kmh SW 18.0 mph29.0 kmh 29.84 in1010.5 mb 0.00 in0.0 mm 0.00 in/hr0.0 mm/hr 0.00 in0.0 mm
03:30 PM 64.2°F17.9°C 47.2°F8.4°C 54% 10.5 mph SW16.9 kmh SW 14.0 mph22.5 kmh 29.84 in1010.5 mb 0.00 in0.0 mm 0.00 in/hr0.0 mm/hr 0.00 in0.0 mm
03:45 PM 63.9°F17.7°C 46.9°F8.3°C 54% 9.2 mph WSW14.8 kmh WSW 16.0 mph25.7 kmh 29.83 in1010.2 mb 0.00 in0.0 mm 0.00 in/hr0.0 mm/hr 0.00 in0.0 mm
04:00 PM 63.2°F17.3°C 47.2°F8.4°C 56% 9.2 mph WSW14.8 kmh WSW 17.0 mph27.4 kmh 29.84 in1010.5 mb 0.00 in0.0 mm 0.00 in/hr0.0 mm/hr 0.00 in0.0 mm
04:15 PM 63.2°F17.3°C 47.2°F8.4°C 56% 10.0 mph WSW16.1 kmh WSW 15.0 mph24.1 kmh 29.84 in1010.5 mb 0.00 in0.0 mm 0.00 in/hr0.0 mm/hr 0.00 in0.0 mm
04:30 PM 62.9°F17.2°C 47.0°F8.3°C 56% 8.6 mph SW13.8 kmh SW 14.0 mph22.5 kmh 29.84 in1010.5 mb 0.00 in0.0 mm 0.00 in/hr0.0 mm/hr 0.00 in0.0 mm
04:45 PM 62.4°F16.9°C 47.0°F8.3°C 57% 8.3 mph SW13.4 kmh SW 11.0 mph17.7 kmh 29.84 in1010.5 mb 0.00 in0.0 mm 0.00 in/hr0.0 mm/hr 0.00 in0.0 mm
05:00 PM 62.0°F16.7°C 47.0°F8.3°C 58% 10.3 mph WSW16.6 kmh WSW 15.0 mph24.1 kmh 29.84 in1010.5 mb 0.00 in0.0 mm 0.00 in/hr0.0 mm/hr 0.00 in0.0 mm
05:15 PM 61.3°F16.3°C 47.3°F8.5°C 60% 6.9 mph SW11.1 kmh SW 13.0 mph20.9 kmh 29.85 in1010.8 mb 0.00 in0.0 mm 0.00 in/hr0.0 mm/hr 0.00 in0.0 mm
05:30 PM 60.7°F15.9°C 47.2°F8.4°C 61% 6.3 mph WSW10.1 kmh WSW 14.0 mph22.5 kmh 29.85 in1010.8 mb 0.00 in0.0 mm 0.00 in/hr0.0 mm/hr 0.00 in0.0 mm
05:45 PM 59.2°F15.1°C 47.4°F8.6°C 65% 8.4 mph SW13.5 kmh SW 12.0 mph19.3 kmh 29.86 in1011.2 mb 0.00 in0.0 mm 0.00 in/hr0.0 mm/hr 0.00 in0.0 mm
06:00 PM 58.1°F14.5°C 47.2°F8.4°C 67% 3.2 mph WSW5.1 kmh WSW 14.0 mph22.5 kmh 29.87 in1011.5 mb 0.00 in0.0 mm 0.00 in/hr0.0 mm/hr 0.00 in0.0 mm
06:15 PM 57.2°F14.0°C 46.7°F8.2°C 68% 4.1 mph SW6.6 kmh SW 6.0 mph9.7 kmh 29.87 in1011.5 mb 0.00 in0.0 mm 0.00 in/hr0.0 mm/hr 0.00 in0.0 mm
06:30 PM 56.5°F13.6°C 46.8°F8.2°C 70% 4.3 mph SW6.9 kmh SW 7.0 mph11.3 kmh 29.87 in1011.5 mb 0.00 in0.0 mm 0.00 in/hr0.0 mm/hr 0.00 in0.0 mm
06:45 PM 55.8°F13.2°C 46.9°F8.3°C 72% 3.2 mph SW5.1 kmh SW 4.0 mph6.4 kmh 29.88 in1011.9 mb 0.00 in0.0 mm 0.00 in/hr0.0 mm/hr 0.00 in0.0 mm
07:00 PM 55.2°F12.9°C 46.7°F8.2°C 73% 2.2 mph WSW3.5 kmh WSW 5.0 mph8.0 kmh 29.88 in1011.9 mb 0.00 in0.0 mm 0.00 in/hr0.0 mm/hr 0.00 in0.0 mm
07:15 PM 54.8°F12.7°C 46.7°F8.2°C 74% 1.5 mph WSW2.4 kmh WSW 3.0 mph4.8 kmh 29.87 in1011.5 mb 0.00 in0.0 mm 0.00 in/hr0.0 mm/hr 0.00 in0.0 mm
07:30 PM 54.5°F12.5°C 46.7°F8.2°C 75% 1.7 mph WSW2.7 kmh WSW 3.0 mph4.8 kmh 29.88 in1011.9 mb 0.00 in0.0 mm 0.00 in/hr0.0 mm/hr 0.00 in0.0 mm
07:45 PM 54.7°F12.6°C 46.9°F8.3°C 75% 0.9 mph WSW1.4 kmh WSW 3.0 mph4.8 kmh 29.89 in1012.2 mb 0.00 in0.0 mm 0.00 in/hr0.0 mm/hr 0.00 in0.0 mm
08:00 PM 54.7°F12.6°C 46.9°F8.3°C 75% 0.5 mph WSW0.8 kmh WSW 3.0 mph4.8 kmh 29.89 in1012.2 mb 0.00 in0.0 mm 0.00 in/hr0.0 mm/hr 0.00 in0.0 mm
08:15 PM 54.5°F12.5°C 47.1°F8.4°C 76% 2.4 mph WSW3.9 kmh WSW 3.0 mph4.8 kmh 29.89 in1012.2 mb 0.00 in0.0 mm 0.00 in/hr0.0 mm/hr 0.00 in0.0 mm
08:30 PM 54.4°F12.4°C 47.0°F8.3°C 76% 0.8 mph WSW1.3 kmh WSW 1.0 mph1.6 kmh 29.90 in1012.5 mb 0.00 in0.0 mm 0.00 in/hr0.0 mm/hr 0.00 in0.0 mm
08:45 PM 54.1°F12.3°C 47.0°F8.3°C 77% 0.2 mph SW0.3 kmh SW -- 29.90 in1012.5 mb 0.00 in0.0 mm 0.00 in/hr0.0 mm/hr 0.00 in0.0 mm
09:00 PM 53.5°F11.9°C 46.5°F8.1°C 77% 4.7 mph SSW7.6 kmh SSW 6.0 mph9.7 kmh 29.90 in1012.5 mb 0.00 in0.0 mm 0.00 in/hr0.0 mm/hr 0.00 in0.0 mm
09:15 PM 53.3°F11.8°C 46.6°F8.1°C 78% 2.3 mph SSW3.7 kmh SSW 5.0 mph8.0 kmh 29.89 in1012.2 mb 0.00 in0.0 mm 0.00 in/hr0.0 mm/hr 0.00 in0.0 mm
09:30 PM 53.2°F11.8°C 46.5°F8.1°C 78% 2.0 mph SSW3.2 kmh SSW 5.0 mph8.0 kmh 29.89 in1012.2 mb 0.00 in0.0 mm 0.00 in/hr0.0 mm/hr 0.00 in0.0 mm
09:45 PM 52.9°F11.6°C 46.6°F8.1°C 79% 4.0 mph SSW6.4 kmh SSW 5.0 mph8.0 kmh 29.89 in1012.2 mb 0.00 in0.0 mm 0.00 in/hr0.0 mm/hr 0.00 in0.0 mm
10:00 PM 52.8°F11.6°C 46.5°F8.1°C 79% 1.5 mph SSW2.4 kmh SSW 4.0 mph6.4 kmh 29.89 in1012.2 mb 0.00 in0.0 mm 0.00 in/hr0.0 mm/hr 0.00 in0.0 mm
10:15 PM 52.6°F11.4°C 46.3°F7.9°C 79% 2.4 mph SSW3.9 kmh SSW 3.0 mph4.8 kmh 29.89 in1012.2 mb 0.00 in0.0 mm 0.00 in/hr0.0 mm/hr 0.00 in0.0 mm
10:30 PM 52.3°F11.3°C 46.3°F7.9°C 80% 2.8 mph SSW4.5 kmh SSW 3.0 mph4.8 kmh 29.89 in1012.2 mb 0.00 in0.0 mm 0.00 in/hr0.0 mm/hr 0.00 in0.0 mm
10:45 PM 52.3°F11.3°C 46.3°F7.9°C 80% 2.8 mph SSW4.5 kmh SSW 4.0 mph6.4 kmh 29.89 in1012.2 mb 0.00 in0.0 mm 0.00 in/hr0.0 mm/hr 0.00 in0.0 mm
11:00 PM 52.0°F11.1°C 46.0°F7.8°C 80% 3.0 mph SSW4.8 kmh SSW 4.0 mph6.4 kmh 29.89 in1012.2 mb 0.00 in0.0 mm 0.00 in/hr0.0 mm/hr 0.00 in0.0 mm
11:15 PM 51.9°F11.1°C 45.9°F7.7°C 80% 0.8 mph SSW1.3 kmh SSW 2.0 mph3.2 kmh 29.89 in1012.2 mb 0.00 in0.0 mm 0.00 in/hr0.0 mm/hr 0.00 in0.0 mm
11:30 PM 51.7°F10.9°C 45.7°F7.6°C 80% 0.8 mph SSW1.3 kmh SSW 2.0 mph3.2 kmh 29.89 in1012.2 mb 0.00 in0.0 mm 0.00 in/hr0.0 mm/hr 0.00 in0.0 mm
11:45 PM 51.3°F10.7°C 45.7°F7.6°C 81% 0.3 mph SSW0.5 kmh SSW 1.0 mph1.6 kmh 29.88 in1011.9 mb 0.00 in0.0 mm 0.00 in/hr0.0 mm/hr 0.00 in0.0 mm